sensor_id;sensor_type;location;lat;lon;timestamp;temperature;humidity
19258;DHT22;9763;48.780;9.212;2023-06-10T00:02:51;22.90;50.10
19258;DHT22;9763;48.780;9.212;2023-06-10T00:06:16;22.80;50.10
19258;DHT22;9763;48.780;9.212;2023-06-10T00:09:40;22.80;50.30
19258;DHT22;9763;48.780;9.212;2023-06-10T00:13:06;22.80;50.30
19258;DHT22;9763;48.780;9.212;2023-06-10T00:16:32;22.70;50.30
19258;DHT22;9763;48.780;9.212;2023-06-10T00:19:56;22.60;50.20
19258;DHT22;9763;48.780;9.212;2023-06-10T00:23:20;22.60;50.40
19258;DHT22;9763;48.780;9.212;2023-06-10T00:26:44;22.60;50.40
19258;DHT22;9763;48.780;9.212;2023-06-10T00:30:09;22.50;50.50
19258;DHT22;9763;48.780;9.212;2023-06-10T00:33:35;22.50;50.60
19258;DHT22;9763;48.780;9.212;2023-06-10T00:36:58;22.40;50.60
19258;DHT22;9763;48.780;9.212;2023-06-10T00:40:22;22.40;50.70
19258;DHT22;9763;48.780;9.212;2023-06-10T00:43:46;22.30;50.70
19258;DHT22;9763;48.780;9.212;2023-06-10T00:47:10;22.30;50.80
19258;DHT22;9763;48.780;9.212;2023-06-10T00:50:35;22.30;50.90
19258;DHT22;9763;48.780;9.212;2023-06-10T00:54:02;22.30;51.00
19258;DHT22;9763;48.780;9.212;2023-06-10T00:57:26;22.20;51.00
19258;DHT22;9763;48.780;9.212;2023-06-10T01:00:51;22.30;51.10
19258;DHT22;9763;48.780;9.212;2023-06-10T01:04:15;22.20;51.20
19258;DHT22;9763;48.780;9.212;2023-06-10T01:07:50;22.10;51.10
19258;DHT22;9763;48.780;9.212;2023-06-10T01:11:28;22.10;51.60
19258;DHT22;9763;48.780;9.212;2023-06-10T01:14:58;22.00;51.50
19258;DHT22;9763;48.780;9.212;2023-06-10T01:18:29;21.90;51.50
19258;DHT22;9763;48.780;9.212;2023-06-10T01:21:55;21.90;51.60
19258;DHT22;9763;48.780;9.212;2023-06-10T01:25:21;21.80;51.70
19258;DHT22;9763;48.780;9.212;2023-06-10T01:28:54;21.80;51.80
19258;DHT22;9763;48.780;9.212;2023-06-10T01:32:26;21.70;51.90
19258;DHT22;9763;48.780;9.212;2023-06-10T01:35:58;21.70;52.00
19258;DHT22;9763;48.780;9.212;2023-06-10T01:39:25;21.60;52.00
19258;DHT22;9763;48.780;9.212;2023-06-10T01:42:49;21.60;52.00
19258;DHT22;9763;48.780;9.212;2023-06-10T01:46:14;21.60;52.20
19258;DHT22;9763;48.780;9.212;2023-06-10T01:49:42;21.50;52.20
19258;DHT22;9763;48.780;9.212;2023-06-10T01:53:05;21.50;52.20
19258;DHT22;9763;48.780;9.212;2023-06-10T01:56:30;21.40;52.20
19258;DHT22;9763;48.780;9.212;2023-06-10T01:59:54;21.40;52.30
19258;DHT22;9763;48.780;9.212;2023-06-10T02:03:18;21.40;52.50
19258;DHT22;9763;48.780;9.212;2023-06-10T02:06:42;21.30;52.50
19258;DHT22;9763;48.780;9.212;2023-06-10T02:10:07;21.30;52.70
19258;DHT22;9763;48.780;9.212;2023-06-10T02:13:32;21.20;52.80
19258;DHT22;9763;48.780;9.212;2023-06-10T02:16:56;21.20;52.80
19258;DHT22;9763;48.780;9.212;2023-06-10T02:20:20;21.10;52.90
19258;DHT22;9763;48.780;9.212;2023-06-10T02:23:44;21.10;53.00
19258;DHT22;9763;48.780;9.212;2023-06-10T02:27:07;21.00;53.00
19258;DHT22;9763;48.780;9.212;2023-06-10T02:30:33;21.10;53.20
19258;DHT22;9763;48.780;9.212;2023-06-10T02:33:56;21.00;53.30
19258;DHT22;9763;48.780;9.212;2023-06-10T02:37:21;21.00;53.10
19258;DHT22;9763;48.780;9.212;2023-06-10T02:40:44;20.90;53.40
19258;DHT22;9763;48.780;9.212;2023-06-10T02:44:08;20.90;53.20
19258;DHT22;9763;48.780;9.212;2023-06-10T02:47:34;20.90;53.40
19258;DHT22;9763;48.780;9.212;2023-06-10T02:50:58;20.90;53.60
19258;DHT22;9763;48.780;9.212;2023-06-10T02:54:31;20.80;53.50
19258;DHT22;9763;48.780;9.212;2023-06-10T02:57:54;20.80;53.50
19258;DHT22;9763;48.780;9.212;2023-06-10T03:01:20;20.80;53.60
19258;DHT22;9763;48.780;9.212;2023-06-10T03:04:53;20.70;53.70
19258;DHT22;9763;48.780;9.212;2023-06-10T03:08:17;20.80;53.80
19258;DHT22;9763;48.780;9.212;2023-06-10T03:11:41;20.70;53.70
19258;DHT22;9763;48.780;9.212;2023-06-10T03:15:06;20.70;53.80
19258;DHT22;9763;48.780;9.212;2023-06-10T03:18:31;20.70;54.00
19258;DHT22;9763;48.780;9.212;2023-06-10T03:22:06;20.70;53.90
19258;DHT22;9763;48.780;9.212;2023-06-10T03:25:34;20.60;54.00
19258;DHT22;9763;48.780;9.212;2023-06-10T03:28:58;20.60;54.00
19258;DHT22;9763;48.780;9.212;2023-06-10T03:32:23;20.60;54.00
19258;DHT22;9763;48.780;9.212;2023-06-10T03:35:47;20.60;54.10
19258;DHT22;9763;48.780;9.212;2023-06-10T03:39:13;20.50;54.10
19258;DHT22;9763;48.780;9.212;2023-06-10T03:42:37;20.60;54.30
19258;DHT22;9763;48.780;9.212;2023-06-10T03:46:03;20.50;54.30
19258;DHT22;9763;48.780;9.212;2023-06-10T03:49:28;20.60;54.40
19258;DHT22;9763;48.780;9.212;2023-06-10T03:52:55;20.60;54.60
19258;DHT22;9763;48.780;9.212;2023-06-10T03:56:22;20.70;54.90
19258;DHT22;9763;48.780;9.212;2023-06-10T03:59:46;20.80;55.10
19258;DHT22;9763;48.780;9.212;2023-06-10T04:03:10;20.80;55.40
19258;DHT22;9763;48.780;9.212;2023-06-10T04:06:43;21.10;56.10
19258;DHT22;9763;48.780;9.212;2023-06-10T04:10:08;21.20;56.20
19258;DHT22;9763;48.780;9.212;2023-06-10T04:13:34;21.50;56.50
19258;DHT22;9763;48.780;9.212;2023-06-10T04:16:58;21.90;56.50
19258;DHT22;9763;48.780;9.212;2023-06-10T04:20:24;22.20;56.60
19258;DHT22;9763;48.780;9.212;2023-06-10T04:23:48;22.50;56.60
19258;DHT22;9763;48.780;9.212;2023-06-10T04:27:12;22.80;56.60
19258;DHT22;9763;48.780;9.212;2023-06-10T04:30:37;24.80;58.10
19258;DHT22;9763;48.780;9.212;2023-06-10T04:34:01;23.50;56.70
19258;DHT22;9763;48.780;9.212;2023-06-10T04:37:26;23.90;56.60
19258;DHT22;9763;48.780;9.212;2023-06-10T04:40:51;24.30;56.70
19258;DHT22;9763;48.780;9.212;2023-06-10T04:44:16;24.70;56.60
19258;DHT22;9763;48.780;9.212;2023-06-10T04:47:42;25.10;56.50
19258;DHT22;9763;48.780;9.212;2023-06-10T04:51:06;25.40;56.10
19258;DHT22;9763;48.780;9.212;2023-06-10T04:54:30;25.80;55.70
19258;DHT22;9763;48.780;9.212;2023-06-10T04:57:54;26.10;55.30
19258;DHT22;9763;48.780;9.212;2023-06-10T05:01:19;26.40;55.50
19258;DHT22;9763;48.780;9.212;2023-06-10T05:04:44;26.80;55.50
19258;DHT22;9763;48.780;9.212;2023-06-10T05:08:08;27.20;55.10
19258;DHT22;9763;48.780;9.212;2023-06-10T05:11:31;27.50;54.90
19258;DHT22;9763;48.780;9.212;2023-06-10T05:14:55;27.90;54.80
19258;DHT22;9763;48.780;9.212;2023-06-10T05:18:19;28.30;54.40
19258;DHT22;9763;48.780;9.212;2023-06-10T05:21:45;28.60;54.00
19258;DHT22;9763;48.780;9.212;2023-06-10T05:25:09;29.00;53.40
19258;DHT22;9763;48.780;9.212;2023-06-10T05:28:33;29.30;53.30
19258;DHT22;9763;48.780;9.212;2023-06-10T05:31:57;29.60;53.40
19258;DHT22;9763;48.780;9.212;2023-06-10T05:35:25;30.10;53.50
19258;DHT22;9763;48.780;9.212;2023-06-10T05:38:50;30.50;53.20
19258;DHT22;9763;48.780;9.212;2023-06-10T05:42:14;31.00;52.70
19258;DHT22;9763;48.780;9.212;2023-06-10T05:45:37;31.40;52.20
19258;DHT22;9763;48.780;9.212;2023-06-10T05:49:02;31.80;51.40
19258;DHT22;9763;48.780;9.212;2023-06-10T05:52:26;32.20;50.90
19258;DHT22;9763;48.780;9.212;2023-06-10T05:55:51;32.50;50.80
19258;DHT22;9763;48.780;9.212;2023-06-10T05:59:19;32.80;50.30
19258;DHT22;9763;48.780;9.212;2023-06-10T06:02:44;33.20;50.40
19258;DHT22;9763;48.780;9.212;2023-06-10T06:06:08;33.50;50.10
19258;DHT22;9763;48.780;9.212;2023-06-10T06:09:32;33.90;49.80
19258;DHT22;9763;48.780;9.212;2023-06-10T06:12:57;34.30;49.40
19258;DHT22;9763;48.780;9.212;2023-06-10T06:16:21;34.80;48.70
19258;DHT22;9763;48.780;9.212;2023-06-10T06:19:45;35.10;48.20
19258;DHT22;9763;48.780;9.212;2023-06-10T06:23:10;35.50;47.60
19258;DHT22;9763;48.780;9.212;2023-06-10T06:26:33;35.90;47.00
19258;DHT22;9763;48.780;9.212;2023-06-10T06:29:58;36.10;46.40
19258;DHT22;9763;48.780;9.212;2023-06-10T06:33:23;35.90;45.20
19258;DHT22;9763;48.780;9.212;2023-06-10T06:36:48;36.70;45.50
19258;DHT22;9763;48.780;9.212;2023-06-10T06:40:13;36.90;45.20
19258;DHT22;9763;48.780;9.212;2023-06-10T06:43:37;37.20;44.70
19258;DHT22;9763;48.780;9.212;2023-06-10T06:47:20;37.50;44.20
19258;DHT22;9763;48.780;9.212;2023-06-10T06:50:44;37.80;43.50
19258;DHT22;9763;48.780;9.212;2023-06-10T06:54:08;38.00;42.90
19258;DHT22;9763;48.780;9.212;2023-06-10T06:57:33;38.20;42.50
19258;DHT22;9763;48.780;9.212;2023-06-10T07:00:57;38.30;42.30
19258;DHT22;9763;48.780;9.212;2023-06-10T07:04:22;38.40;42.00
19258;DHT22;9763;48.780;9.212;2023-06-10T07:07:46;38.50;41.00
19258;DHT22;9763;48.780;9.212;2023-06-10T07:11:09;38.60;41.10
19258;DHT22;9763;48.780;9.212;2023-06-10T07:14:33;38.60;40.60
19258;DHT22;9763;48.780;9.212;2023-06-10T07:17:58;38.60;40.60
19258;DHT22;9763;48.780;9.212;2023-06-10T07:21:23;38.70;40.00
19258;DHT22;9763;48.780;9.212;2023-06-10T07:24:46;38.60;39.70
19258;DHT22;9763;48.780;9.212;2023-06-10T07:28:10;38.60;40.00
19258;DHT22;9763;48.780;9.212;2023-06-10T07:31:34;38.70;40.00
19258;DHT22;9763;48.780;9.212;2023-06-10T07:34:57;38.80;39.70
19258;DHT22;9763;48.780;9.212;2023-06-10T07:38:22;39.00;39.80
19258;DHT22;9763;48.780;9.212;2023-06-10T07:41:46;39.20;39.70
19258;DHT22;9763;48.780;9.212;2023-06-10T07:45:11;39.40;39.80
19258;DHT22;9763;48.780;9.212;2023-06-10T07:48:34;39.60;39.40
19258;DHT22;9763;48.780;9.212;2023-06-10T07:51:58;39.70;38.80
19258;DHT22;9763;48.780;9.212;2023-06-10T07:55:23;39.90;38.50
19258;DHT22;9763;48.780;9.212;2023-06-10T07:58:48;40.00;38.20
19258;DHT22;9763;48.780;9.212;2023-06-10T08:02:12;40.20;38.20
19258;DHT22;9763;48.780;9.212;2023-06-10T08:05:36;40.30;38.00
19258;DHT22;9763;48.780;9.212;2023-06-10T08:09:00;40.40;37.80
19258;DHT22;9763;48.780;9.212;2023-06-10T08:12:25;40.40;37.70
19258;DHT22;9763;48.780;9.212;2023-06-10T08:15:48;40.50;37.10
19258;DHT22;9763;48.780;9.212;2023-06-10T08:19:13;40.50;37.00
19258;DHT22;9763;48.780;9.212;2023-06-10T08:22:36;40.50;37.10
19258;DHT22;9763;48.780;9.212;2023-06-10T08:26:01;40.50;36.90
19258;DHT22;9763;48.780;9.212;2023-06-10T08:29:27;40.60;36.40
19258;DHT22;9763;48.780;9.212;2023-06-10T08:32:51;40.70;36.10
19258;DHT22;9763;48.780;9.212;2023-06-10T08:36:15;40.70;36.00
19258;DHT22;9763;48.780;9.212;2023-06-10T08:39:39;40.60;35.90
19258;DHT22;9763;48.780;9.212;2023-06-10T08:43:06;40.60;35.70
19258;DHT22;9763;48.780;9.212;2023-06-10T08:46:32;40.60;35.40
19258;DHT22;9763;48.780;9.212;2023-06-10T08:49:57;40.50;35.60
19258;DHT22;9763;48.780;9.212;2023-06-10T08:53:27;40.60;35.50
19258;DHT22;9763;48.780;9.212;2023-06-10T08:56:57;40.70;35.20
19258;DHT22;9763;48.780;9.212;2023-06-10T09:00:23;40.70;35.00
19258;DHT22;9763;48.780;9.212;2023-06-10T09:03:50;40.70;35.00
19258;DHT22;9763;48.780;9.212;2023-06-10T09:07:16;40.80;34.70
19258;DHT22;9763;48.780;9.212;2023-06-10T09:10:40;40.90;34.60
19258;DHT22;9763;48.780;9.212;2023-06-10T09:14:04;40.90;34.30
19258;DHT22;9763;48.780;9.212;2023-06-10T09:17:28;40.90;34.10
19258;DHT22;9763;48.780;9.212;2023-06-10T09:20:53;40.80;33.80
19258;DHT22;9763;48.780;9.212;2023-06-10T09:24:17;40.70;33.60
19258;DHT22;9763;48.780;9.212;2023-06-10T09:27:45;40.60;34.50
19258;DHT22;9763;48.780;9.212;2023-06-10T09:31:12;40.60;33.70
19258;DHT22;9763;48.780;9.212;2023-06-10T09:34:36;40.70;34.10
19258;DHT22;9763;48.780;9.212;2023-06-10T09:38:01;40.70;33.90
19258;DHT22;9763;48.780;9.212;2023-06-10T09:41:32;40.80;33.80
19258;DHT22;9763;48.780;9.212;2023-06-10T09:44:56;40.90;33.00
19258;DHT22;9763;48.780;9.212;2023-06-10T09:48:20;40.90;33.70
19258;DHT22;9763;48.780;9.212;2023-06-10T09:51:50;40.80;32.40
19258;DHT22;9763;48.780;9.212;2023-06-10T09:55:17;40.70;31.90
19258;DHT22;9763;48.780;9.212;2023-06-10T09:58:41;40.40;31.80
19258;DHT22;9763;48.780;9.212;2023-06-10T10:02:05;40.10;31.30
19258;DHT22;9763;48.780;9.212;2023-06-10T10:05:32;39.60;31.50
19258;DHT22;9763;48.780;9.212;2023-06-10T10:08:56;39.00;31.50
19258;DHT22;9763;48.780;9.212;2023-06-10T10:12:21;38.60;32.80
19258;DHT22;9763;48.780;9.212;2023-06-10T10:15:48;38.40;33.10
19258;DHT22;9763;48.780;9.212;2023-06-10T10:19:14;38.30;34.00
19258;DHT22;9763;48.780;9.212;2023-06-10T10:22:44;38.40;34.80
19258;DHT22;9763;48.780;9.212;2023-06-10T10:26:10;38.50;33.80
19258;DHT22;9763;48.780;9.212;2023-06-10T10:29:38;38.40;32.60
19258;DHT22;9763;48.780;9.212;2023-06-10T10:33:05;38.10;32.30
19258;DHT22;9763;48.780;9.212;2023-06-10T10:36:32;37.90;33.30
19258;DHT22;9763;48.780;9.212;2023-06-10T10:39:56;37.80;34.10
19258;DHT22;9763;48.780;9.212;2023-06-10T10:43:23;37.90;34.30
19258;DHT22;9763;48.780;9.212;2023-06-10T10:46:50;38.00;34.50
19258;DHT22;9763;48.780;9.212;2023-06-10T10:50:17;38.10;33.40
19258;DHT22;9763;48.780;9.212;2023-06-10T10:53:41;38.20;33.40
19258;DHT22;9763;48.780;9.212;2023-06-10T10:57:10;38.10;33.10
19258;DHT22;9763;48.780;9.212;2023-06-10T11:00:36;38.20;33.30
19258;DHT22;9763;48.780;9.212;2023-06-10T11:04:07;38.30;34.20
19258;DHT22;9763;48.780;9.212;2023-06-10T11:07:31;38.50;33.10
19258;DHT22;9763;48.780;9.212;2023-06-10T11:10:56;38.70;32.60
19258;DHT22;9763;48.780;9.212;2023-06-10T11:14:26;38.50;31.70
19258;DHT22;9763;48.780;9.212;2023-06-10T11:18:20;38.20;31.30
19258;DHT22;9763;48.780;9.212;2023-06-10T11:21:59;37.90;31.50
19258;DHT22;9763;48.780;9.212;2023-06-10T11:25:38;37.60;32.00
19258;DHT22;9763;48.780;9.212;2023-06-10T11:29:07;37.50;32.00
19258;DHT22;9763;48.780;9.212;2023-06-10T11:32:34;37.40;33.10
19258;DHT22;9763;48.780;9.212;2023-06-10T11:35:58;37.50;33.60
19258;DHT22;9763;48.780;9.212;2023-06-10T11:39:24;37.60;33.50
19258;DHT22;9763;48.780;9.212;2023-06-10T11:42:49;37.80;33.40
19258;DHT22;9763;48.780;9.212;2023-06-10T11:46:13;37.90;33.50
19258;DHT22;9763;48.780;9.212;2023-06-10T11:49:38;38.10;33.50
19258;DHT22;9763;48.780;9.212;2023-06-10T11:53:04;38.30;33.30
19258;DHT22;9763;48.780;9.212;2023-06-10T11:56:31;38.40;33.10
19258;DHT22;9763;48.780;9.212;2023-06-10T11:59:55;38.60;32.80
19258;DHT22;9763;48.780;9.212;2023-06-10T12:03:19;38.80;32.80
19258;DHT22;9763;48.780;9.212;2023-06-10T12:06:46;39.00;32.80
19258;DHT22;9763;48.780;9.212;2023-06-10T12:10:10;39.20;32.00
19258;DHT22;9763;48.780;9.212;2023-06-10T12:13:47;39.20;31.10
19258;DHT22;9763;48.780;9.212;2023-06-10T12:17:12;39.10;30.00
19258;DHT22;9763;48.780;9.212;2023-06-10T12:20:36;38.80;30.00
19258;DHT22;9763;48.780;9.212;2023-06-10T12:24:05;38.40;29.80
19258;DHT22;9763;48.780;9.212;2023-06-10T12:27:30;38.00;30.00
19258;DHT22;9763;48.780;9.212;2023-06-10T12:31:07;37.60;30.00
19258;DHT22;9763;48.780;9.212;2023-06-10T12:34:32;37.30;29.80
19258;DHT22;9763;48.780;9.212;2023-06-10T12:37:59;36.90;29.80
19258;DHT22;9763;48.780;9.212;2023-06-10T12:41:25;36.60;29.80
19258;DHT22;9763;48.780;9.212;2023-06-10T12:44:53;36.00;29.80
19258;DHT22;9763;48.780;9.212;2023-06-10T12:48:22;35.60;30.40
19258;DHT22;9763;48.780;9.212;2023-06-10T12:51:49;35.30;31.30
19258;DHT22;9763;48.780;9.212;2023-06-10T12:55:13;35.30;32.10
19258;DHT22;9763;48.780;9.212;2023-06-10T12:58:37;35.40;32.70
19258;DHT22;9763;48.780;9.212;2023-06-10T13:02:01;35.50;32.60
19258;DHT22;9763;48.780;9.212;2023-06-10T13:05:27;35.70;32.40
19258;DHT22;9763;48.780;9.212;2023-06-10T13:08:51;35.80;32.60
19258;DHT22;9763;48.780;9.212;2023-06-10T13:12:15;36.00;32.80
19258;DHT22;9763;48.780;9.212;2023-06-10T13:15:55;36.30;32.70
19258;DHT22;9763;48.780;9.212;2023-06-10T13:19:19;36.50;31.80
19258;DHT22;9763;48.780;9.212;2023-06-10T13:22:45;36.50;31.60
19258;DHT22;9763;48.780;9.212;2023-06-10T13:26:10;36.50;31.00
19258;DHT22;9763;48.780;9.212;2023-06-10T13:29:33;36.40;30.90
19258;DHT22;9763;48.780;9.212;2023-06-10T13:32:57;36.40;31.20
19258;DHT22;9763;48.780;9.212;2023-06-10T13:36:21;36.30;31.50
19258;DHT22;9763;48.780;9.212;2023-06-10T13:39:46;36.30;31.70
19258;DHT22;9763;48.780;9.212;2023-06-10T13:43:10;36.40;31.60
19258;DHT22;9763;48.780;9.212;2023-06-10T13:46:35;36.70;31.10
19258;DHT22;9763;48.780;9.212;2023-06-10T13:50:00;36.30;30.30
19258;DHT22;9763;48.780;9.212;2023-06-10T13:53:24;36.10;30.00
19258;DHT22;9763;48.780;9.212;2023-06-10T13:56:49;35.90;29.90
19258;DHT22;9763;48.780;9.212;2023-06-10T14:00:13;35.50;29.70
19258;DHT22;9763;48.780;9.212;2023-06-10T14:03:37;35.20;30.00
19258;DHT22;9763;48.780;9.212;2023-06-10T14:07:01;35.10;30.10
19258;DHT22;9763;48.780;9.212;2023-06-10T14:10:25;34.90;30.60
19258;DHT22;9763;48.780;9.212;2023-06-10T14:13:50;34.90;30.90
19258;DHT22;9763;48.780;9.212;2023-06-10T14:17:14;34.80;30.60
19258;DHT22;9763;48.780;9.212;2023-06-10T14:20:38;34.70;30.90
19258;DHT22;9763;48.780;9.212;2023-06-10T14:24:01;34.60;30.70
19258;DHT22;9763;48.780;9.212;2023-06-10T14:27:25;34.40;30.40
19258;DHT22;9763;48.780;9.212;2023-06-10T14:30:51;34.20;30.50
19258;DHT22;9763;48.780;9.212;2023-06-10T14:34:14;33.90;30.60
19258;DHT22;9763;48.780;9.212;2023-06-10T14:37:38;33.70;30.70
19258;DHT22;9763;48.780;9.212;2023-06-10T14:41:02;33.50;31.00
19258;DHT22;9763;48.780;9.212;2023-06-10T14:44:25;33.40;31.40
19258;DHT22;9763;48.780;9.212;2023-06-10T14:47:51;33.30;31.50
19258;DHT22;9763;48.780;9.212;2023-06-10T14:51:15;33.20;31.40
19258;DHT22;9763;48.780;9.212;2023-06-10T14:54:38;33.10;31.40
19258;DHT22;9763;48.780;9.212;2023-06-10T14:58:02;32.90;31.40
19258;DHT22;9763;48.780;9.212;2023-06-10T15:01:25;32.70;31.60
19258;DHT22;9763;48.780;9.212;2023-06-10T15:04:50;32.50;31.90
19258;DHT22;9763;48.780;9.212;2023-06-10T15:08:14;32.40;32.10
19258;DHT22;9763;48.780;9.212;2023-06-10T15:11:38;32.20;32.30
19258;DHT22;9763;48.780;9.212;2023-06-10T15:15:02;32.10;32.50
19258;DHT22;9763;48.780;9.212;2023-06-10T15:18:26;32.00;32.70
19258;DHT22;9763;48.780;9.212;2023-06-10T15:21:51;31.90;32.80
19258;DHT22;9763;48.780;9.212;2023-06-10T15:25:15;31.80;33.10
19258;DHT22;9763;48.780;9.212;2023-06-10T15:28:52;31.70;33.20
19258;DHT22;9763;48.780;9.212;2023-06-10T15:32:15;31.70;33.30
19258;DHT22;9763;48.780;9.212;2023-06-10T15:35:40;31.70;33.90
19258;DHT22;9763;48.780;9.212;2023-06-10T15:39:05;31.70;33.20
19258;DHT22;9763;48.780;9.212;2023-06-10T15:42:29;31.70;33.10
19258;DHT22;9763;48.780;9.212;2023-06-10T15:45:53;31.70;33.50
19258;DHT22;9763;48.780;9.212;2023-06-10T15:49:17;31.70;33.40
19258;DHT22;9763;48.780;9.212;2023-06-10T15:52:41;31.80;33.80
19258;DHT22;9763;48.780;9.212;2023-06-10T15:56:06;31.80;33.40
19258;DHT22;9763;48.780;9.212;2023-06-10T15:59:30;31.80;33.40
19258;DHT22;9763;48.780;9.212;2023-06-10T16:02:54;31.70;33.10
19258;DHT22;9763;48.780;9.212;2023-06-10T16:06:18;31.70;33.20
19258;DHT22;9763;48.780;9.212;2023-06-10T16:09:42;31.50;32.80
19258;DHT22;9763;48.780;9.212;2023-06-10T16:13:07;31.40;33.10
19258;DHT22;9763;48.780;9.212;2023-06-10T16:16:31;31.30;32.90
19258;DHT22;9763;48.780;9.212;2023-06-10T16:19:55;31.30;33.50
19258;DHT22;9763;48.780;9.212;2023-06-10T16:23:18;31.20;33.50
19258;DHT22;9763;48.780;9.212;2023-06-10T16:26:43;31.20;33.90
19258;DHT22;9763;48.780;9.212;2023-06-10T16:30:08;31.20;34.20
19258;DHT22;9763;48.780;9.212;2023-06-10T16:33:35;31.30;34.40
19258;DHT22;9763;48.780;9.212;2023-06-10T16:36:59;31.30;34.40
19258;DHT22;9763;48.780;9.212;2023-06-10T16:40:23;31.40;34.40
19258;DHT22;9763;48.780;9.212;2023-06-10T16:43:47;31.40;34.40
19258;DHT22;9763;48.780;9.212;2023-06-10T16:47:12;31.40;34.20
19258;DHT22;9763;48.780;9.212;2023-06-10T16:50:36;31.50;34.10
19258;DHT22;9763;48.780;9.212;2023-06-10T16:53:59;31.40;33.80
19258;DHT22;9763;48.780;9.212;2023-06-10T16:57:23;31.40;33.80
19258;DHT22;9763;48.780;9.212;2023-06-10T17:00:47;31.30;33.90
19258;DHT22;9763;48.780;9.212;2023-06-10T17:04:13;31.30;34.10
19258;DHT22;9763;48.780;9.212;2023-06-10T17:07:36;31.30;34.20
19258;DHT22;9763;48.780;9.212;2023-06-10T17:11:00;31.30;34.40
19258;DHT22;9763;48.780;9.212;2023-06-10T17:14:23;31.40;34.50
19258;DHT22;9763;48.780;9.212;2023-06-10T17:17:47;31.30;34.40
19258;DHT22;9763;48.780;9.212;2023-06-10T17:21:13;31.40;34.50
19258;DHT22;9763;48.780;9.212;2023-06-10T17:24:37;31.30;34.50
19258;DHT22;9763;48.780;9.212;2023-06-10T17:28:01;31.20;34.40
19258;DHT22;9763;48.780;9.212;2023-06-10T17:31:25;31.20;34.50
19258;DHT22;9763;48.780;9.212;2023-06-10T17:34:49;31.10;35.10
19258;DHT22;9763;48.780;9.212;2023-06-10T17:38:14;30.90;34.40
19258;DHT22;9763;48.780;9.212;2023-06-10T17:41:38;30.80;34.60
19258;DHT22;9763;48.780;9.212;2023-06-10T17:45:02;30.70;35.30
19258;DHT22;9763;48.780;9.212;2023-06-10T17:48:26;30.60;34.90
19258;DHT22;9763;48.780;9.212;2023-06-10T17:51:50;30.50;35.00
19258;DHT22;9763;48.780;9.212;2023-06-10T17:55:15;30.40;35.10
19258;DHT22;9763;48.780;9.212;2023-06-10T17:58:39;30.30;35.20
19258;DHT22;9763;48.780;9.212;2023-06-10T18:02:04;30.20;35.30
19258;DHT22;9763;48.780;9.212;2023-06-10T18:05:29;30.10;36.00
19258;DHT22;9763;48.780;9.212;2023-06-10T18:08:52;30.00;35.40
19258;DHT22;9763;48.780;9.212;2023-06-10T18:12:17;29.90;35.50
19258;DHT22;9763;48.780;9.212;2023-06-10T18:15:41;29.80;35.70
19258;DHT22;9763;48.780;9.212;2023-06-10T18:19:04;29.60;35.70
19258;DHT22;9763;48.780;9.212;2023-06-10T18:22:28;29.60;35.80
19258;DHT22;9763;48.780;9.212;2023-06-10T18:25:52;29.40;35.90
19258;DHT22;9763;48.780;9.212;2023-06-10T18:29:17;29.40;36.00
19258;DHT22;9763;48.780;9.212;2023-06-10T18:32:41;29.30;36.20
19258;DHT22;9763;48.780;9.212;2023-06-10T18:36:05;29.20;36.30
19258;DHT22;9763;48.780;9.212;2023-06-10T18:39:28;29.20;36.40
19258;DHT22;9763;48.780;9.212;2023-06-10T18:42:52;29.10;36.40
19258;DHT22;9763;48.780;9.212;2023-06-10T18:46:17;29.00;36.50
19258;DHT22;9763;48.780;9.212;2023-06-10T18:49:41;29.00;36.70
19258;DHT22;9763;48.780;9.212;2023-06-10T18:53:05;27.10;35.50
19258;DHT22;9763;48.780;9.212;2023-06-10T18:56:28;28.80;36.80
19258;DHT22;9763;48.780;9.212;2023-06-10T18:59:52;28.70;36.90
19258;DHT22;9763;48.780;9.212;2023-06-10T19:03:17;28.70;37.00
19258;DHT22;9763;48.780;9.212;2023-06-10T19:06:41;28.60;37.20
19258;DHT22;9763;48.780;9.212;2023-06-10T19:10:06;28.60;37.20
19258;DHT22;9763;48.780;9.212;2023-06-10T19:13:30;28.50;37.30
19258;DHT22;9763;48.780;9.212;2023-06-10T19:16:54;28.40;37.30
19258;DHT22;9763;48.780;9.212;2023-06-10T19:20:19;28.40;37.50
19258;DHT22;9763;48.780;9.212;2023-06-10T19:23:43;28.30;37.60
19258;DHT22;9763;48.780;9.212;2023-06-10T19:27:07;28.30;37.70
19258;DHT22;9763;48.780;9.212;2023-06-10T19:30:32;28.20;37.70
19258;DHT22;9763;48.780;9.212;2023-06-10T19:33:56;28.20;37.90
19258;DHT22;9763;48.780;9.212;2023-06-10T19:37:21;28.20;38.20
19258;DHT22;9763;48.780;9.212;2023-06-10T19:40:45;28.10;38.30
19258;DHT22;9763;48.780;9.212;2023-06-10T19:44:08;28.10;38.40
19258;DHT22;9763;48.780;9.212;2023-06-10T19:47:32;28.00;38.40
19258;DHT22;9763;48.780;9.212;2023-06-10T19:50:56;27.90;38.50
19258;DHT22;9763;48.780;9.212;2023-06-10T19:54:21;27.90;38.80
19258;DHT22;9763;48.780;9.212;2023-06-10T19:57:45;27.80;39.00
19258;DHT22;9763;48.780;9.212;2023-06-10T20:01:10;27.80;39.00
19258;DHT22;9763;48.780;9.212;2023-06-10T20:04:34;27.70;39.10
19258;DHT22;9763;48.780;9.212;2023-06-10T20:07:57;27.70;39.20
19258;DHT22;9763;48.780;9.212;2023-06-10T20:11:22;27.60;39.20
19258;DHT22;9763;48.780;9.212;2023-06-10T20:14:47;27.60;39.40
19258;DHT22;9763;48.780;9.212;2023-06-10T20:18:10;27.50;39.40
19258;DHT22;9763;48.780;9.212;2023-06-10T20:21:34;27.50;39.60
19258;DHT22;9763;48.780;9.212;2023-06-10T20:24:58;27.40;39.80
19258;DHT22;9763;48.780;9.212;2023-06-10T20:28:24;27.40;39.90
19258;DHT22;9763;48.780;9.212;2023-06-10T20:31:47;27.30;40.00
19258;DHT22;9763;48.780;9.212;2023-06-10T20:35:12;27.30;40.30
19258;DHT22;9763;48.780;9.212;2023-06-10T20:38:35;27.20;40.10
19258;DHT22;9763;48.780;9.212;2023-06-10T20:41:59;27.10;40.40
19258;DHT22;9763;48.780;9.212;2023-06-10T20:45:24;27.10;40.50
19258;DHT22;9763;48.780;9.212;2023-06-10T20:48:48;27.00;40.60
19258;DHT22;9763;48.780;9.212;2023-06-10T20:52:11;27.00;40.40
19258;DHT22;9763;48.780;9.212;2023-06-10T20:55:35;27.00;40.80
19258;DHT22;9763;48.780;9.212;2023-06-10T20:58:59;26.90;40.60
19258;DHT22;9763;48.780;9.212;2023-06-10T21:02:25;26.80;40.90
19258;DHT22;9763;48.780;9.212;2023-06-10T21:05:48;26.80;41.10
19258;DHT22;9763;48.780;9.212;2023-06-10T21:09:12;26.70;41.10
19258;DHT22;9763;48.780;9.212;2023-06-10T21:12:37;26.70;41.20
19258;DHT22;9763;48.780;9.212;2023-06-10T21:16:03;26.60;41.30
19258;DHT22;9763;48.780;9.212;2023-06-10T21:19:29;26.60;41.80
19258;DHT22;9763;48.780;9.212;2023-06-10T21:22:52;26.50;41.80
19258;DHT22;9763;48.780;9.212;2023-06-10T21:26:16;26.50;41.90
19258;DHT22;9763;48.780;9.212;2023-06-10T21:29:40;26.40;42.00
19258;DHT22;9763;48.780;9.212;2023-06-10T21:33:04;26.30;42.10
19258;DHT22;9763;48.780;9.212;2023-06-10T21:36:29;26.30;42.20
19258;DHT22;9763;48.780;9.212;2023-06-10T21:39:53;26.20;42.20
19258;DHT22;9763;48.780;9.212;2023-06-10T21:43:17;26.20;42.40
19258;DHT22;9763;48.780;9.212;2023-06-10T21:46:41;26.10;42.80
19258;DHT22;9763;48.780;9.212;2023-06-10T21:50:05;26.10;42.90
19258;DHT22;9763;48.780;9.212;2023-06-10T21:53:31;25.90;43.20
19258;DHT22;9763;48.780;9.212;2023-06-10T21:56:55;25.90;43.20